sensor_id;sensor_type;location;lat;lon;timestamp;P1;durP1;ratioP1;P2;durP2;ratioP2
54909;SDS011;63189;51.240;9.964;2022-10-16T00:01:36;2.05;;;1.42;;
54909;SDS011;63189;51.240;9.964;2022-10-16T00:04:03;2.30;;;1.65;;
54909;SDS011;63189;51.240;9.964;2022-10-16T00:06:29;1.40;;;1.30;;
54909;SDS011;63189;51.240;9.964;2022-10-16T00:08:56;4.55;;;1.55;;
54909;SDS011;63189;51.240;9.964;2022-10-16T00:11:23;2.38;;;1.40;;
54909;SDS011;63189;51.240;9.964;2022-10-16T00:13:53;1.67;;;0.98;;
54909;SDS011;63189;51.240;9.964;2022-10-16T00:16:21;3.88;;;1.10;;
54909;SDS011;63189;51.240;9.964;2022-10-16T00:18:47;1.50;;;1.38;;
54909;SDS011;63189;51.240;9.964;2022-10-16T00:21:14;1.92;;;1.25;;
54909;SDS011;63189;51.240;9.964;2022-10-16T00:23:49;4.38;;;1.58;;
54909;SDS011;63189;51.240;9.964;2022-10-16T00:26:16;1.45;;;1.15;;
54909;SDS011;63189;51.240;9.964;2022-10-16T00:28:42;2.60;;;1.25;;
54909;SDS011;63189;51.240;9.964;2022-10-16T00:31:11;1.83;;;1.52;;
54909;SDS011;63189;51.240;9.964;2022-10-16T00:33:37;1.40;;;1.25;;
54909;SDS011;63189;51.240;9.964;2022-10-16T00:36:04;1.90;;;1.27;;
54909;SDS011;63189;51.240;9.964;2022-10-16T00:38:31;1.73;;;1.30;;
54909;SDS011;63189;51.240;9.964;2022-10-16T00:40:57;2.67;;;1.27;;
54909;SDS011;63189;51.240;9.964;2022-10-16T00:49:14;2.05;;;1.38;;
54909;SDS011;63189;51.240;9.964;2022-10-16T00:51:48;2.05;;;1.33;;
54909;SDS011;63189;51.240;9.964;2022-10-16T00:54:22;4.53;;;1.42;;
54909;SDS011;63189;51.240;9.964;2022-10-16T00:56:51;1.33;;;1.02;;
54909;SDS011;63189;51.240;9.964;2022-10-16T00:59:23;1.75;;;1.40;;
54909;SDS011;63189;51.240;9.964;2022-10-16T01:01:50;1.70;;;1.15;;
54909;SDS011;63189;51.240;9.964;2022-10-16T01:04:16;1.92;;;1.27;;
54909;SDS011;63189;51.240;9.964;2022-10-16T01:06:44;2.35;;;1.65;;
54909;SDS011;63189;51.240;9.964;2022-10-16T01:12:08;3.30;;;1.30;;
54909;SDS011;63189;51.240;9.964;2022-10-16T01:14:52;3.22;;;1.70;;
54909;SDS011;63189;51.240;9.964;2022-10-16T01:17:28;1.77;;;1.60;;
54909;SDS011;63189;51.240;9.964;2022-10-16T01:21:09;2.30;;;1.45;;
54909;SDS011;63189;51.240;9.964;2022-10-16T01:23:14;2.28;;;1.70;;
54909;SDS011;63189;51.240;9.964;2022-10-16T01:26:13;2.78;;;1.83;;
54909;SDS011;63189;51.240;9.964;2022-10-16T01:28:55;2.05;;;1.40;;
54909;SDS011;63189;51.240;9.964;2022-10-16T01:31:24;2.70;;;2.00;;
54909;SDS011;63189;51.240;9.964;2022-10-16T01:34:03;3.97;;;2.20;;
54909;SDS011;63189;51.240;9.964;2022-10-16T01:36:35;4.80;;;2.13;;
54909;SDS011;63189;51.240;9.964;2022-10-16T01:39:05;2.75;;;1.80;;
54909;SDS011;63189;51.240;9.964;2022-10-16T01:41:36;2.22;;;1.60;;
54909;SDS011;63189;51.240;9.964;2022-10-16T01:44:08;4.93;;;1.83;;
54909;SDS011;63189;51.240;9.964;2022-10-16T01:46:55;2.88;;;2.00;;
54909;SDS011;63189;51.240;9.964;2022-10-16T01:49:21;2.05;;;1.85;;
54909;SDS011;63189;51.240;9.964;2022-10-16T01:51:52;1.75;;;1.50;;
54909;SDS011;63189;51.240;9.964;2022-10-16T01:54:21;2.40;;;1.52;;
54909;SDS011;63189;51.240;9.964;2022-10-16T01:56:51;3.25;;;1.70;;
54909;SDS011;63189;51.240;9.964;2022-10-16T01:59:18;2.33;;;1.67;;
54909;SDS011;63189;51.240;9.964;2022-10-16T02:01:49;2.42;;;1.70;;
54909;SDS011;63189;51.240;9.964;2022-10-16T02:04:19;2.40;;;1.58;;
54909;SDS011;63189;51.240;9.964;2022-10-16T02:06:49;2.67;;;1.48;;
54909;SDS011;63189;51.240;9.964;2022-10-16T02:09:14;3.22;;;1.70;;
54909;SDS011;63189;51.240;9.964;2022-10-16T02:11:41;1.80;;;1.40;;
54909;SDS011;63189;51.240;9.964;2022-10-16T02:14:08;3.13;;;2.03;;
54909;SDS011;63189;51.240;9.964;2022-10-16T02:16:35;2.45;;;1.65;;
54909;SDS011;63189;51.240;9.964;2022-10-16T02:19:00;2.75;;;2.30;;
54909;SDS011;63189;51.240;9.964;2022-10-16T02:21:28;4.93;;;2.63;;
54909;SDS011;63189;51.240;9.964;2022-10-16T02:24:03;3.88;;;2.60;;
54909;SDS011;63189;51.240;9.964;2022-10-16T02:26:51;2.78;;;2.53;;
54909;SDS011;63189;51.240;9.964;2022-10-16T02:29:26;3.10;;;2.00;;
54909;SDS011;63189;51.240;9.964;2022-10-16T02:31:56;2.08;;;1.88;;
54909;SDS011;63189;51.240;9.964;2022-10-16T02:34:25;2.55;;;1.60;;
54909;SDS011;63189;51.240;9.964;2022-10-16T02:36:55;6.07;;;2.20;;
54909;SDS011;63189;51.240;9.964;2022-10-16T02:39:23;3.42;;;2.10;;
54909;SDS011;63189;51.240;9.964;2022-10-16T02:41:49;2.28;;;2.00;;
54909;SDS011;63189;51.240;9.964;2022-10-16T02:44:14;8.75;;;2.30;;
54909;SDS011;63189;51.240;9.964;2022-10-16T02:46:40;1.45;;;1.35;;
54909;SDS011;63189;51.240;9.964;2022-10-16T02:49:05;3.58;;;2.10;;
54909;SDS011;63189;51.240;9.964;2022-10-16T02:51:30;3.97;;;2.00;;
54909;SDS011;63189;51.240;9.964;2022-10-16T02:53:55;2.38;;;1.58;;
54909;SDS011;63189;51.240;9.964;2022-10-16T02:56:21;2.70;;;2.08;;
54909;SDS011;63189;51.240;9.964;2022-10-16T02:58:46;6.07;;;2.85;;
54909;SDS011;63189;51.240;9.964;2022-10-16T03:01:11;2.85;;;2.15;;
54909;SDS011;63189;51.240;9.964;2022-10-16T03:03:39;2.42;;;1.70;;
54909;SDS011;63189;51.240;9.964;2022-10-16T03:06:04;4.57;;;2.30;;
54909;SDS011;63189;51.240;9.964;2022-10-16T03:08:30;7.82;;;2.80;;
54909;SDS011;63189;51.240;9.964;2022-10-16T03:10:56;3.50;;;2.42;;
54909;SDS011;63189;51.240;9.964;2022-10-16T03:13:21;4.57;;;2.00;;
54909;SDS011;63189;51.240;9.964;2022-10-16T03:15:47;2.22;;;1.95;;
54909;SDS011;63189;51.240;9.964;2022-10-16T03:18:12;2.20;;;1.98;;
54909;SDS011;63189;51.240;9.964;2022-10-16T03:20:37;4.63;;;2.38;;
54909;SDS011;63189;51.240;9.964;2022-10-16T03:23:03;5.68;;;2.53;;
54909;SDS011;63189;51.240;9.964;2022-10-16T03:25:29;4.43;;;2.10;;
54909;SDS011;63189;51.240;9.964;2022-10-16T03:27:54;2.58;;;2.30;;
54909;SDS011;63189;51.240;9.964;2022-10-16T03:30:19;4.32;;;2.53;;
54909;SDS011;63189;51.240;9.964;2022-10-16T03:32:45;4.80;;;2.30;;
54909;SDS011;63189;51.240;9.964;2022-10-16T03:35:11;5.22;;;2.20;;
54909;SDS011;63189;51.240;9.964;2022-10-16T03:37:36;2.83;;;2.50;;
54909;SDS011;63189;51.240;9.964;2022-10-16T03:40:02;2.42;;;2.03;;
54909;SDS011;63189;51.240;9.964;2022-10-16T03:42:29;2.53;;;1.75;;
54909;SDS011;63189;51.240;9.964;2022-10-16T03:44:54;4.38;;;2.30;;
54909;SDS011;63189;51.240;9.964;2022-10-16T03:47:19;3.78;;;2.13;;
54909;SDS011;63189;51.240;9.964;2022-10-16T03:49:47;3.40;;;2.40;;
54909;SDS011;63189;51.240;9.964;2022-10-16T03:52:12;3.58;;;2.40;;
54909;SDS011;63189;51.240;9.964;2022-10-16T03:54:38;4.60;;;2.05;;
54909;SDS011;63189;51.240;9.964;2022-10-16T03:57:03;2.45;;;2.08;;
54909;SDS011;63189;51.240;9.964;2022-10-16T03:59:28;8.32;;;2.30;;
54909;SDS011;63189;51.240;9.964;2022-10-16T04:01:54;3.00;;;2.08;;
54909;SDS011;63189;51.240;9.964;2022-10-16T04:04:19;5.88;;;2.33;;
54909;SDS011;63189;51.240;9.964;2022-10-16T04:06:44;5.95;;;2.15;;
54909;SDS011;63189;51.240;9.964;2022-10-16T04:09:10;2.42;;;2.20;;
54909;SDS011;63189;51.240;9.964;2022-10-16T04:11:35;2.47;;;2.10;;
54909;SDS011;63189;51.240;9.964;2022-10-16T04:14:00;5.55;;;2.40;;
54909;SDS011;63189;51.240;9.964;2022-10-16T04:16:25;2.30;;;1.75;;
54909;SDS011;63189;51.240;9.964;2022-10-16T04:18:51;3.47;;;2.30;;
54909;SDS011;63189;51.240;9.964;2022-10-16T04:21:16;3.33;;;2.10;;
54909;SDS011;63189;51.240;9.964;2022-10-16T04:23:42;2.15;;;1.90;;
54909;SDS011;63189;51.240;9.964;2022-10-16T04:26:07;1.88;;;1.67;;
54909;SDS011;63189;51.240;9.964;2022-10-16T04:28:33;3.78;;;1.73;;
54909;SDS011;63189;51.240;9.964;2022-10-16T04:30:58;3.03;;;1.98;;
54909;SDS011;63189;51.240;9.964;2022-10-16T04:33:23;4.28;;;2.30;;
54909;SDS011;63189;51.240;9.964;2022-10-16T04:35:55;2.42;;;1.95;;
54909;SDS011;63189;51.240;9.964;2022-10-16T04:38:22;2.47;;;1.80;;
54909;SDS011;63189;51.240;9.964;2022-10-16T04:40:47;2.42;;;1.48;;
54909;SDS011;63189;51.240;9.964;2022-10-16T04:43:12;2.70;;;1.77;;
54909;SDS011;63189;51.240;9.964;2022-10-16T04:45:38;4.07;;;2.40;;
54909;SDS011;63189;51.240;9.964;2022-10-16T04:48:03;5.45;;;2.00;;
54909;SDS011;63189;51.240;9.964;2022-10-16T04:50:28;2.15;;;1.33;;
54909;SDS011;63189;51.240;9.964;2022-10-16T04:52:54;6.88;;;2.13;;
54909;SDS011;63189;51.240;9.964;2022-10-16T04:55:19;1.73;;;1.58;;
54909;SDS011;63189;51.240;9.964;2022-10-16T04:57:44;4.82;;;1.90;;
54909;SDS011;63189;51.240;9.964;2022-10-16T05:00:10;2.83;;;1.80;;
54909;SDS011;63189;51.240;9.964;2022-10-16T05:02:36;1.92;;;1.60;;
54909;SDS011;63189;51.240;9.964;2022-10-16T05:05:01;4.20;;;1.50;;
54909;SDS011;63189;51.240;9.964;2022-10-16T05:07:26;6.93;;;4.47;;
54909;SDS011;63189;51.240;9.964;2022-10-16T05:09:52;2.80;;;1.85;;
54909;SDS011;63189;51.240;9.964;2022-10-16T05:12:18;2.63;;;2.08;;
54909;SDS011;63189;51.240;9.964;2022-10-16T05:14:43;3.95;;;1.80;;
54909;SDS011;63189;51.240;9.964;2022-10-16T05:17:08;3.08;;;1.50;;
54909;SDS011;63189;51.240;9.964;2022-10-16T05:19:34;2.38;;;2.13;;
54909;SDS011;63189;51.240;9.964;2022-10-16T05:21:59;3.22;;;1.63;;
54909;SDS011;63189;51.240;9.964;2022-10-16T05:24:25;3.47;;;1.77;;
54909;SDS011;63189;51.240;9.964;2022-10-16T05:26:50;4.70;;;2.10;;
54909;SDS011;63189;51.240;9.964;2022-10-16T05:29:16;2.63;;;1.52;;
54909;SDS011;63189;51.240;9.964;2022-10-16T05:31:41;4.20;;;1.83;;
54909;SDS011;63189;51.240;9.964;2022-10-16T05:34:06;2.63;;;2.33;;
54909;SDS011;63189;51.240;9.964;2022-10-16T05:36:32;2.13;;;1.90;;
54909;SDS011;63189;51.240;9.964;2022-10-16T05:38:57;3.67;;;2.00;;
54909;SDS011;63189;51.240;9.964;2022-10-16T05:41:23;4.60;;;2.20;;
54909;SDS011;63189;51.240;9.964;2022-10-16T05:43:50;4.60;;;2.33;;
54909;SDS011;63189;51.240;9.964;2022-10-16T05:46:16;2.33;;;1.88;;
54909;SDS011;63189;51.240;9.964;2022-10-16T05:48:43;1.73;;;1.63;;
54909;SDS011;63189;51.240;9.964;2022-10-16T05:51:09;5.95;;;2.75;;
54909;SDS011;63189;51.240;9.964;2022-10-16T05:53:37;3.90;;;2.53;;
54909;SDS011;63189;51.240;9.964;2022-10-16T05:56:03;3.67;;;2.17;;
54909;SDS011;63189;51.240;9.964;2022-10-16T05:58:30;3.65;;;2.60;;
54909;SDS011;63189;51.240;9.964;2022-10-16T06:00:58;3.42;;;2.10;;
54909;SDS011;63189;51.240;9.964;2022-10-16T06:03:35;3.78;;;2.58;;
54909;SDS011;63189;51.240;9.964;2022-10-16T06:08:40;5.35;;;2.70;;
54909;SDS011;63189;51.240;9.964;2022-10-16T06:11:08;3.22;;;2.20;;
54909;SDS011;63189;51.240;9.964;2022-10-16T06:13:35;4.63;;;2.70;;
54909;SDS011;63189;51.240;9.964;2022-10-16T06:16:01;3.20;;;2.50;;
54909;SDS011;63189;51.240;9.964;2022-10-16T06:18:27;4.78;;;3.03;;
54909;SDS011;63189;51.240;9.964;2022-10-16T06:20:53;2.97;;;2.38;;
54909;SDS011;63189;51.240;9.964;2022-10-16T06:23:19;2.95;;;2.20;;
54909;SDS011;63189;51.240;9.964;2022-10-16T06:25:44;2.88;;;2.28;;
54909;SDS011;63189;51.240;9.964;2022-10-16T06:28:09;5.15;;;2.72;;
54909;SDS011;63189;51.240;9.964;2022-10-16T06:30:35;3.42;;;2.38;;
54909;SDS011;63189;51.240;9.964;2022-10-16T06:33:00;4.40;;;2.45;;
54909;SDS011;63189;51.240;9.964;2022-10-16T06:35:25;3.38;;;2.70;;
54909;SDS011;63189;51.240;9.964;2022-10-16T06:37:52;5.00;;;2.40;;
54909;SDS011;63189;51.240;9.964;2022-10-16T06:40:18;2.75;;;2.30;;
54909;SDS011;63189;51.240;9.964;2022-10-16T06:42:43;2.95;;;2.28;;
54909;SDS011;63189;51.240;9.964;2022-10-16T06:45:09;2.47;;;2.08;;
54909;SDS011;63189;51.240;9.964;2022-10-16T06:47:35;2.40;;;2.20;;
54909;SDS011;63189;51.240;9.964;2022-10-16T06:50:00;2.35;;;2.13;;
54909;SDS011;63189;51.240;9.964;2022-10-16T06:52:27;3.22;;;2.65;;
54909;SDS011;63189;51.240;9.964;2022-10-16T06:54:53;4.32;;;2.65;;
54909;SDS011;63189;51.240;9.964;2022-10-16T06:57:18;3.03;;;2.00;;
54909;SDS011;63189;51.240;9.964;2022-10-16T06:59:43;2.38;;;1.95;;
54909;SDS011;63189;51.240;9.964;2022-10-16T07:02:10;2.33;;;2.10;;
54909;SDS011;63189;51.240;9.964;2022-10-16T07:04:35;2.03;;;1.80;;
54909;SDS011;63189;51.240;9.964;2022-10-16T07:07:01;2.70;;;2.50;;
54909;SDS011;63189;51.240;9.964;2022-10-16T07:09:26;2.30;;;1.80;;
54909;SDS011;63189;51.240;9.964;2022-10-16T07:11:52;2.70;;;2.00;;
54909;SDS011;63189;51.240;9.964;2022-10-16T07:14:18;2.28;;;2.08;;
54909;SDS011;63189;51.240;9.964;2022-10-16T07:16:45;2.47;;;1.95;;
54909;SDS011;63189;51.240;9.964;2022-10-16T07:19:11;4.40;;;2.75;;
54909;SDS011;63189;51.240;9.964;2022-10-16T07:21:39;3.75;;;2.20;;
54909;SDS011;63189;51.240;9.964;2022-10-16T07:24:05;2.67;;;2.00;;
54909;SDS011;63189;51.240;9.964;2022-10-16T07:26:33;3.13;;;1.88;;
54909;SDS011;63189;51.240;9.964;2022-10-16T07:29:00;2.45;;;2.03;;
54909;SDS011;63189;51.240;9.964;2022-10-16T07:31:25;2.20;;;2.00;;
54909;SDS011;63189;51.240;9.964;2022-10-16T07:33:51;2.67;;;2.45;;
54909;SDS011;63189;51.240;9.964;2022-10-16T07:36:17;5.60;;;2.10;;
54909;SDS011;63189;51.240;9.964;2022-10-16T07:38:43;6.47;;;2.00;;
54909;SDS011;63189;51.240;9.964;2022-10-16T07:41:11;3.33;;;1.60;;
54909;SDS011;63189;51.240;9.964;2022-10-16T07:43:38;3.03;;;1.65;;
54909;SDS011;63189;51.240;9.964;2022-10-16T07:46:04;2.45;;;1.52;;
54909;SDS011;63189;51.240;9.964;2022-10-16T07:48:31;1.63;;;1.52;;
54909;SDS011;63189;51.240;9.964;2022-10-16T07:51:01;2.42;;;1.23;;
54909;SDS011;63189;51.240;9.964;2022-10-16T07:53:29;3.15;;;1.58;;
54909;SDS011;63189;51.240;9.964;2022-10-16T07:56:02;2.13;;;1.60;;
54909;SDS011;63189;51.240;9.964;2022-10-16T07:58:30;1.35;;;1.13;;
54909;SDS011;63189;51.240;9.964;2022-10-16T08:00:56;2.35;;;1.40;;
54909;SDS011;63189;51.240;9.964;2022-10-16T08:03:22;1.67;;;1.27;;
54909;SDS011;63189;51.240;9.964;2022-10-16T08:05:49;4.20;;;1.40;;
54909;SDS011;63189;51.240;9.964;2022-10-16T08:08:15;1.65;;;1.27;;
54909;SDS011;63189;51.240;9.964;2022-10-16T08:10:41;2.45;;;1.30;;
54909;SDS011;63189;51.240;9.964;2022-10-16T08:13:06;3.83;;;1.30;;
54909;SDS011;63189;51.240;9.964;2022-10-16T08:15:32;2.03;;;1.20;;
54909;SDS011;63189;51.240;9.964;2022-10-16T08:17:58;1.60;;;1.10;;
54909;SDS011;63189;51.240;9.964;2022-10-16T08:20:28;1.33;;;1.00;;
54909;SDS011;63189;51.240;9.964;2022-10-16T08:22:55;1.83;;;1.23;;
54909;SDS011;63189;51.240;9.964;2022-10-16T08:25:23;1.90;;;1.48;;
54909;SDS011;63189;51.240;9.964;2022-10-16T08:27:49;1.50;;;1.33;;
54909;SDS011;63189;51.240;9.964;2022-10-16T08:30:15;2.97;;;1.10;;
54909;SDS011;63189;51.240;9.964;2022-10-16T08:32:43;1.90;;;1.30;;
54909;SDS011;63189;51.240;9.964;2022-10-16T08:35:10;1.55;;;0.93;;
54909;SDS011;63189;51.240;9.964;2022-10-16T08:37:36;1.30;;;0.98;;
54909;SDS011;63189;51.240;9.964;2022-10-16T08:40:02;1.98;;;0.90;;
54909;SDS011;63189;51.240;9.964;2022-10-16T08:50:52;1.85;;;1.17;;
54909;SDS011;63189;51.240;9.964;2022-10-16T08:53:20;1.75;;;1.10;;
54909;SDS011;63189;51.240;9.964;2022-10-16T08:55:54;2.25;;;1.17;;
54909;SDS011;63189;51.240;9.964;2022-10-16T08:58:21;1.25;;;0.95;;
54909;SDS011;63189;51.240;9.964;2022-10-16T09:00:55;1.67;;;0.88;;
54909;SDS011;63189;51.240;9.964;2022-10-16T09:03:23;1.27;;;0.90;;
54909;SDS011;63189;51.240;9.964;2022-10-16T09:13:59;2.15;;;1.00;;
54909;SDS011;63189;51.240;9.964;2022-10-16T09:16:41;0.60;;;0.57;;
54909;SDS011;63189;51.240;9.964;2022-10-16T09:19:19;3.35;;;1.10;;
54909;SDS011;63189;51.240;9.964;2022-10-16T09:21:50;5.40;;;2.63;;
54909;SDS011;63189;51.240;9.964;2022-10-16T09:24:18;3.03;;;1.73;;
54909;SDS011;63189;51.240;9.964;2022-10-16T09:26:50;4.72;;;1.48;;
54909;SDS011;63189;51.240;9.964;2022-10-16T09:29:15;8.77;;;5.00;;
54909;SDS011;63189;51.240;9.964;2022-10-16T09:31:45;2.05;;;1.00;;
54909;SDS011;63189;51.240;9.964;2022-10-16T09:36:57;1.38;;;0.60;;
54909;SDS011;63189;51.240;9.964;2022-10-16T09:39:24;2.15;;;0.55;;
54909;SDS011;63189;51.240;9.964;2022-10-16T09:41:50;1.20;;;0.60;;
54909;SDS011;63189;51.240;9.964;2022-10-16T09:44:21;1.00;;;0.70;;
54909;SDS011;63189;51.240;9.964;2022-10-16T09:47:11;0.80;;;0.40;;
54909;SDS011;63189;51.240;9.964;2022-10-16T09:49:49;2.08;;;0.70;;
54909;SDS011;63189;51.240;9.964;2022-10-16T09:52:16;1.25;;;0.57;;
54909;SDS011;63189;51.240;9.964;2022-10-16T09:54:54;1.95;;;0.60;;
54909;SDS011;63189;51.240;9.964;2022-10-16T09:57:21;0.55;;;0.40;;
54909;SDS011;63189;51.240;9.964;2022-10-16T09:59:48;0.60;;;0.35;;
54909;SDS011;63189;51.240;9.964;2022-10-16T10:02:15;3.65;;;1.10;;
54909;SDS011;63189;51.240;9.964;2022-10-16T10:04:45;0.57;;;0.43;;
54909;SDS011;63189;51.240;9.964;2022-10-16T10:07:19;1.40;;;0.47;;
54909;SDS011;63189;51.240;9.964;2022-10-16T10:09:49;1.08;;;0.40;;
54909;SDS011;63189;51.240;9.964;2022-10-16T10:12:24;0.30;;;0.30;;
54909;SDS011;63189;51.240;9.964;2022-10-16T10:14:52;1.05;;;0.40;;
54909;SDS011;63189;51.240;9.964;2022-10-16T10:19:53;0.95;;;0.40;;
54909;SDS011;63189;51.240;9.964;2022-10-16T10:22:25;0.50;;;0.50;;
54909;SDS011;63189;51.240;9.964;2022-10-16T10:35:52;4.88;;;1.77;;
54909;SDS011;63189;51.240;9.964;2022-10-16T10:38:37;1.13;;;0.43;;
54909;SDS011;63189;51.240;9.964;2022-10-16T10:49:56;0.85;;;0.40;;
54909;SDS011;63189;51.240;9.964;2022-10-16T10:58:01;1.63;;;0.50;;
54909;SDS011;63189;51.240;9.964;2022-10-16T11:08:33;0.30;;;0.30;;
54909;SDS011;63189;51.240;9.964;2022-10-16T11:11:06;0.95;;;0.40;;
54909;SDS011;63189;51.240;9.964;2022-10-16T11:13:55;0.90;;;0.50;;
54909;SDS011;63189;51.240;9.964;2022-10-16T11:16:30;1.35;;;0.57;;
54909;SDS011;63189;51.240;9.964;2022-10-16T11:27:50;0.65;;;0.30;;
54909;SDS011;63189;51.240;9.964;2022-10-16T11:30:38;0.80;;;0.30;;
54909;SDS011;63189;51.240;9.964;2022-10-16T11:40:52;1.08;;;0.20;;
54909;SDS011;63189;51.240;9.964;2022-10-16T11:43:32;1.25;;;0.30;;
54909;SDS011;63189;51.240;9.964;2022-10-16T11:46:04;1.05;;;0.30;;
54909;SDS011;63189;51.240;9.964;2022-10-16T11:48:41;2.40;;;0.30;;
54909;SDS011;63189;51.240;9.964;2022-10-16T11:51:19;1.25;;;0.30;;
54909;SDS011;63189;51.240;9.964;2022-10-16T11:57:08;0.40;;;0.20;;
54909;SDS011;63189;51.240;9.964;2022-10-16T11:59:46;0.20;;;0.20;;
54909;SDS011;63189;51.240;9.964;2022-10-16T12:05:14;1.33;;;0.20;;
54909;SDS011;63189;51.240;9.964;2022-10-16T12:07:56;6.88;;;2.47;;
54909;SDS011;63189;51.240;9.964;2022-10-16T12:10:31;0.50;;;0.30;;
54909;SDS011;63189;51.240;9.964;2022-10-16T12:12:58;0.50;;;0.40;;
54909;SDS011;63189;51.240;9.964;2022-10-16T12:15:27;1.90;;;0.45;;
54909;SDS011;63189;51.240;9.964;2022-10-16T12:17:54;0.47;;;0.30;;
54909;SDS011;63189;51.240;9.964;2022-10-16T12:20:25;0.35;;;0.20;;
54909;SDS011;63189;51.240;9.964;2022-10-16T12:22:56;0.40;;;0.15;;
54909;SDS011;63189;51.240;9.964;2022-10-16T12:25:30;0.68;;;0.22;;
54909;SDS011;63189;51.240;9.964;2022-10-16T12:30:56;0.45;;;0.20;;
54909;SDS011;63189;51.240;9.964;2022-10-16T12:33:57;0.82;;;0.30;;
54909;SDS011;63189;51.240;9.964;2022-10-16T12:36:27;1.75;;;0.35;;
54909;SDS011;63189;51.240;9.964;2022-10-16T12:38:58;0.73;;;0.20;;
54909;SDS011;63189;51.240;9.964;2022-10-16T12:41:26;0.65;;;0.20;;
54909;SDS011;63189;51.240;9.964;2022-10-16T12:43:59;0.95;;;0.40;;
54909;SDS011;63189;51.240;9.964;2022-10-16T12:49:04;0.40;;;0.20;;
54909;SDS011;63189;51.240;9.964;2022-10-16T12:51:52;1.00;;;0.20;;
54909;SDS011;63189;51.240;9.964;2022-10-16T12:54:28;0.95;;;0.20;;
54909;SDS011;63189;51.240;9.964;2022-10-16T13:16:46;0.75;;;0.17;;
54909;SDS011;63189;51.240;9.964;2022-10-16T13:30:16;0.40;;;0.20;;
54909;SDS011;63189;51.240;9.964;2022-10-16T13:32:45;0.40;;;0.28;;
54909;SDS011;63189;51.240;9.964;2022-10-16T13:35:30;1.38;;;0.30;;
54909;SDS011;63189;51.240;9.964;2022-10-16T13:38:14;0.40;;;0.20;;
54909;SDS011;63189;51.240;9.964;2022-10-16T13:46:04;0.68;;;0.20;;
54909;SDS011;63189;51.240;9.964;2022-10-16T13:48:32;0.35;;;0.20;;
54909;SDS011;63189;51.240;9.964;2022-10-16T13:51:19;0.75;;;0.40;;
54909;SDS011;63189;51.240;9.964;2022-10-16T13:53:45;1.10;;;0.30;;
54909;SDS011;63189;51.240;9.964;2022-10-16T13:56:14;2.40;;;0.35;;
54909;SDS011;63189;51.240;9.964;2022-10-16T13:58:43;1.38;;;0.60;;
54909;SDS011;63189;51.240;9.964;2022-10-16T14:03:44;0.35;;;0.30;;
54909;SDS011;63189;51.240;9.964;2022-10-16T14:06:12;0.57;;;0.30;;
54909;SDS011;63189;51.240;9.964;2022-10-16T14:08:43;1.00;;;0.20;;
54909;SDS011;63189;51.240;9.964;2022-10-16T14:11:19;0.28;;;0.20;;
54909;SDS011;63189;51.240;9.964;2022-10-16T14:13:47;1.08;;;0.20;;
54909;SDS011;63189;51.240;9.964;2022-10-16T14:16:16;0.80;;;0.30;;
54909;SDS011;63189;51.240;9.964;2022-10-16T14:18:59;1.23;;;0.40;;
54909;SDS011;63189;51.240;9.964;2022-10-16T14:21:27;0.80;;;0.20;;
54909;SDS011;63189;51.240;9.964;2022-10-16T14:23:53;0.38;;;0.20;;
54909;SDS011;63189;51.240;9.964;2022-10-16T14:26:20;0.73;;;0.30;;
54909;SDS011;63189;51.240;9.964;2022-10-16T14:28:49;0.77;;;0.30;;
54909;SDS011;63189;51.240;9.964;2022-10-16T14:31:30;0.55;;;0.30;;
54909;SDS011;63189;51.240;9.964;2022-10-16T14:33:57;1.85;;;0.30;;
54909;SDS011;63189;51.240;9.964;2022-10-16T14:36:25;0.40;;;0.20;;
54909;SDS011;63189;51.240;9.964;2022-10-16T14:41:29;1.65;;;0.28;;
54909;SDS011;63189;51.240;9.964;2022-10-16T14:43:57;0.88;;;0.30;;
54909;SDS011;63189;51.240;9.964;2022-10-16T14:46:36;2.40;;;0.30;;
54909;SDS011;63189;51.240;9.964;2022-10-16T14:51:33;0.43;;;0.30;;
54909;SDS011;63189;51.240;9.964;2022-10-16T14:53:58;0.65;;;0.43;;
54909;SDS011;63189;51.240;9.964;2022-10-16T14:56:24;2.25;;;0.30;;
54909;SDS011;63189;51.240;9.964;2022-10-16T14:58:52;1.65;;;0.20;;
54909;SDS011;63189;51.240;9.964;2022-10-16T15:01:19;2.05;;;0.20;;
54909;SDS011;63189;51.240;9.964;2022-10-16T15:03:45;0.88;;;0.45;;
54909;SDS011;63189;51.240;9.964;2022-10-16T15:06:11;0.63;;;0.40;;
54909;SDS011;63189;51.240;9.964;2022-10-16T15:08:37;3.20;;;0.75;;
54909;SDS011;63189;51.240;9.964;2022-10-16T15:11:02;1.17;;;0.20;;
54909;SDS011;63189;51.240;9.964;2022-10-16T15:13:28;0.73;;;0.32;;
54909;SDS011;63189;51.240;9.964;2022-10-16T15:15:53;0.30;;;0.30;;
54909;SDS011;63189;51.240;9.964;2022-10-16T15:18:19;0.77;;;0.30;;
54909;SDS011;63189;51.240;9.964;2022-10-16T15:20:47;1.27;;;0.68;;
54909;SDS011;63189;51.240;9.964;2022-10-16T15:23:17;0.50;;;0.20;;
54909;SDS011;63189;51.240;9.964;2022-10-16T15:25:51;0.35;;;0.20;;
54909;SDS011;63189;51.240;9.964;2022-10-16T15:28:19;1.67;;;0.47;;
54909;SDS011;63189;51.240;9.964;2022-10-16T15:30:45;0.85;;;0.30;;
54909;SDS011;63189;51.240;9.964;2022-10-16T15:33:15;1.30;;;0.40;;
54909;SDS011;63189;51.240;9.964;2022-10-16T15:35:46;0.68;;;0.22;;
54909;SDS011;63189;51.240;9.964;2022-10-16T15:38:13;0.65;;;0.30;;
54909;SDS011;63189;51.240;9.964;2022-10-16T15:40:39;0.38;;;0.20;;
54909;SDS011;63189;51.240;9.964;2022-10-16T15:43:05;0.32;;;0.32;;
54909;SDS011;63189;51.240;9.964;2022-10-16T15:45:30;0.30;;;0.30;;
54909;SDS011;63189;51.240;9.964;2022-10-16T15:47:56;2.40;;;0.40;;
54909;SDS011;63189;51.240;9.964;2022-10-16T15:50:21;2.65;;;0.45;;
54909;SDS011;63189;51.240;9.964;2022-10-16T15:52:46;2.13;;;0.32;;
54909;SDS011;63189;51.240;9.964;2022-10-16T15:55:12;0.40;;;0.40;;
54909;SDS011;63189;51.240;9.964;2022-10-16T15:57:39;1.38;;;0.50;;
54909;SDS011;63189;51.240;9.964;2022-10-16T16:00:08;2.78;;;0.70;;
54909;SDS011;63189;51.240;9.964;2022-10-16T16:02:35;0.73;;;0.50;;
54909;SDS011;63189;51.240;9.964;2022-10-16T16:05:01;2.50;;;0.80;;
54909;SDS011;63189;51.240;9.964;2022-10-16T16:07:26;1.50;;;0.50;;
54909;SDS011;63189;51.240;9.964;2022-10-16T16:09:53;3.08;;;1.40;;
54909;SDS011;63189;51.240;9.964;2022-10-16T16:12:18;3.22;;;0.40;;
54909;SDS011;63189;51.240;9.964;2022-10-16T16:14:44;1.08;;;0.60;;
54909;SDS011;63189;51.240;9.964;2022-10-16T16:17:11;0.60;;;0.50;;
54909;SDS011;63189;51.240;9.964;2022-10-16T16:19:36;1.83;;;0.60;;
54909;SDS011;63189;51.240;9.964;2022-10-16T16:22:02;1.02;;;0.60;;
54909;SDS011;63189;51.240;9.964;2022-10-16T16:24:28;1.80;;;0.50;;
54909;SDS011;63189;51.240;9.964;2022-10-16T16:26:54;4.75;;;0.70;;
54909;SDS011;63189;51.240;9.964;2022-10-16T16:29:19;1.60;;;0.63;;
54909;SDS011;63189;51.240;9.964;2022-10-16T16:31:45;1.02;;;0.60;;
54909;SDS011;63189;51.240;9.964;2022-10-16T16:34:12;2.53;;;0.90;;
54909;SDS011;63189;51.240;9.964;2022-10-16T16:36:38;1.30;;;0.73;;
54909;SDS011;63189;51.240;9.964;2022-10-16T16:39:05;1.55;;;0.77;;
54909;SDS011;63189;51.240;9.964;2022-10-16T16:41:30;3.20;;;1.05;;
54909;SDS011;63189;51.240;9.964;2022-10-16T16:44:06;1.17;;;0.60;;
54909;SDS011;63189;51.240;9.964;2022-10-16T16:46:33;2.20;;;0.77;;
54909;SDS011;63189;51.240;9.964;2022-10-16T16:48:59;0.90;;;0.75;;
54909;SDS011;63189;51.240;9.964;2022-10-16T16:51:25;1.20;;;0.80;;
54909;SDS011;63189;51.240;9.964;2022-10-16T16:53:52;2.58;;;0.85;;
54909;SDS011;63189;51.240;9.964;2022-10-16T16:56:18;2.60;;;0.82;;
54909;SDS011;63189;51.240;9.964;2022-10-16T16:58:45;3.38;;;0.75;;
54909;SDS011;63189;51.240;9.964;2022-10-16T17:01:11;3.97;;;0.90;;
54909;SDS011;63189;51.240;9.964;2022-10-16T17:03:37;0.75;;;0.70;;
54909;SDS011;63189;51.240;9.964;2022-10-16T17:06:03;1.10;;;0.85;;
54909;SDS011;63189;51.240;9.964;2022-10-16T17:08:30;1.20;;;0.90;;
54909;SDS011;63189;51.240;9.964;2022-10-16T17:10:56;1.50;;;0.90;;
54909;SDS011;63189;51.240;9.964;2022-10-16T17:13:23;1.27;;;0.70;;
54909;SDS011;63189;51.240;9.964;2022-10-16T17:15:53;6.28;;;3.55;;